sensor_id;sensor_type;location;lat;lon;timestamp;P1;durP1;ratioP1;P2;durP2;ratioP2
80249;SDS011;69561;37.974;23.708;2023-04-24T00:00:18;19.10;;;9.38;;
80249;SDS011;69561;37.974;23.708;2023-04-24T00:02:44;21.70;;;9.70;;
80249;SDS011;69561;37.974;23.708;2023-04-24T00:05:13;20.42;;;9.85;;
80249;SDS011;69561;37.974;23.708;2023-04-24T00:07:43;21.92;;;9.70;;
80249;SDS011;69561;37.974;23.708;2023-04-24T00:10:10;23.30;;;10.18;;
80249;SDS011;69561;37.974;23.708;2023-04-24T00:12:37;19.70;;;9.32;;
80249;SDS011;69561;37.974;23.708;2023-04-24T00:15:03;15.50;;;9.10;;
80249;SDS011;69561;37.974;23.708;2023-04-24T00:17:29;23.38;;;9.98;;
80249;SDS011;69561;37.974;23.708;2023-04-24T00:19:55;19.13;;;9.50;;
80249;SDS011;69561;37.974;23.708;2023-04-24T00:22:26;17.67;;;9.43;;
80249;SDS011;69561;37.974;23.708;2023-04-24T00:24:53;20.65;;;9.73;;
80249;SDS011;69561;37.974;23.708;2023-04-24T00:27:19;21.25;;;9.57;;
80249;SDS011;69561;37.974;23.708;2023-04-24T00:29:44;17.30;;;9.48;;
80249;SDS011;69561;37.974;23.708;2023-04-24T00:32:10;14.23;;;9.45;;
80249;SDS011;69561;37.974;23.708;2023-04-24T00:34:36;22.25;;;8.85;;
80249;SDS011;69561;37.974;23.708;2023-04-24T00:37:02;18.73;;;9.25;;
80249;SDS011;69561;37.974;23.708;2023-04-24T00:39:28;21.00;;;9.80;;
80249;SDS011;69561;37.974;23.708;2023-04-24T00:41:54;21.10;;;9.00;;
80249;SDS011;69561;37.974;23.708;2023-04-24T00:44:20;15.98;;;9.43;;
80249;SDS011;69561;37.974;23.708;2023-04-24T00:46:46;18.88;;;9.23;;
80249;SDS011;69561;37.974;23.708;2023-04-24T00:49:16;13.88;;;8.68;;
80249;SDS011;69561;37.974;23.708;2023-04-24T00:51:43;15.63;;;9.00;;
80249;SDS011;69561;37.974;23.708;2023-04-24T00:54:10;20.85;;;9.27;;
80249;SDS011;69561;37.974;23.708;2023-04-24T00:56:36;18.35;;;9.20;;
80249;SDS011;69561;37.974;23.708;2023-04-24T00:59:02;15.02;;;8.63;;
80249;SDS011;69561;37.974;23.708;2023-04-24T01:01:29;15.85;;;8.40;;
80249;SDS011;69561;37.974;23.708;2023-04-24T01:03:55;17.73;;;8.65;;
80249;SDS011;69561;37.974;23.708;2023-04-24T01:06:22;16.42;;;8.65;;
80249;SDS011;69561;37.974;23.708;2023-04-24T01:08:52;20.13;;;9.25;;
80249;SDS011;69561;37.974;23.708;2023-04-24T01:11:18;16.48;;;9.63;;
80249;SDS011;69561;37.974;23.708;2023-04-24T01:13:44;20.50;;;8.77;;
80249;SDS011;69561;37.974;23.708;2023-04-24T01:16:12;20.98;;;9.00;;
80249;SDS011;69561;37.974;23.708;2023-04-24T01:18:38;15.43;;;9.00;;
80249;SDS011;69561;37.974;23.708;2023-04-24T01:21:04;18.05;;;9.07;;
80249;SDS011;69561;37.974;23.708;2023-04-24T01:23:30;16.73;;;8.75;;
80249;SDS011;69561;37.974;23.708;2023-04-24T01:25:56;14.27;;;9.05;;
80249;SDS011;69561;37.974;23.708;2023-04-24T01:28:22;14.55;;;8.45;;
80249;SDS011;69561;37.974;23.708;2023-04-24T01:30:48;23.30;;;9.00;;
80249;SDS011;69561;37.974;23.708;2023-04-24T01:33:14;17.70;;;9.13;;
80249;SDS011;69561;37.974;23.708;2023-04-24T01:35:40;15.85;;;8.43;;
80249;SDS011;69561;37.974;23.708;2023-04-24T01:38:06;19.98;;;8.85;;
80249;SDS011;69561;37.974;23.708;2023-04-24T01:40:32;16.00;;;8.90;;
80249;SDS011;69561;37.974;23.708;2023-04-24T01:42:58;16.92;;;8.43;;
80249;SDS011;69561;37.974;23.708;2023-04-24T01:45:24;17.15;;;8.35;;
80249;SDS011;69561;37.974;23.708;2023-04-24T01:47:50;16.80;;;8.85;;
80249;SDS011;69561;37.974;23.708;2023-04-24T01:50:16;17.58;;;9.18;;
80249;SDS011;69561;37.974;23.708;2023-04-24T01:52:43;15.05;;;9.00;;
80249;SDS011;69561;37.974;23.708;2023-04-24T01:55:09;18.48;;;9.85;;
80249;SDS011;69561;37.974;23.708;2023-04-24T01:57:35;17.48;;;9.88;;
80249;SDS011;69561;37.974;23.708;2023-04-24T02:00:01;17.70;;;9.82;;
80249;SDS011;69561;37.974;23.708;2023-04-24T02:02:29;19.50;;;8.73;;
80249;SDS011;69561;37.974;23.708;2023-04-24T02:04:55;19.67;;;9.30;;
80249;SDS011;69561;37.974;23.708;2023-04-24T02:07:22;24.23;;;9.32;;
80249;SDS011;69561;37.974;23.708;2023-04-24T02:09:48;18.98;;;9.38;;
80249;SDS011;69561;37.974;23.708;2023-04-24T02:12:14;20.48;;;9.77;;
80249;SDS011;69561;37.974;23.708;2023-04-24T02:14:40;14.38;;;10.10;;
80249;SDS011;69561;37.974;23.708;2023-04-24T02:17:07;16.88;;;9.40;;
80249;SDS011;69561;37.974;23.708;2023-04-24T02:19:33;21.80;;;9.43;;
80249;SDS011;69561;37.974;23.708;2023-04-24T02:21:58;18.65;;;9.02;;
80249;SDS011;69561;37.974;23.708;2023-04-24T02:24:24;21.88;;;9.50;;
80249;SDS011;69561;37.974;23.708;2023-04-24T02:26:50;16.95;;;9.23;;
80249;SDS011;69561;37.974;23.708;2023-04-24T02:29:15;14.80;;;9.63;;
80249;SDS011;69561;37.974;23.708;2023-04-24T02:31:41;20.55;;;9.55;;
80249;SDS011;69561;37.974;23.708;2023-04-24T02:34:07;17.35;;;9.20;;
80249;SDS011;69561;37.974;23.708;2023-04-24T02:36:33;19.00;;;9.20;;
80249;SDS011;69561;37.974;23.708;2023-04-24T02:38:58;17.48;;;8.70;;
80249;SDS011;69561;37.974;23.708;2023-04-24T02:41:24;18.45;;;8.90;;
80249;SDS011;69561;37.974;23.708;2023-04-24T02:43:56;18.98;;;9.60;;
80249;SDS011;69561;37.974;23.708;2023-04-24T02:46:22;22.30;;;9.07;;
80249;SDS011;69561;37.974;23.708;2023-04-24T02:48:47;21.13;;;8.98;;
80249;SDS011;69561;37.974;23.708;2023-04-24T02:51:13;23.35;;;9.48;;
80249;SDS011;69561;37.974;23.708;2023-04-24T02:53:39;13.85;;;8.95;;
80249;SDS011;69561;37.974;23.708;2023-04-24T02:56:05;13.23;;;8.55;;
80249;SDS011;69561;37.974;23.708;2023-04-24T02:58:30;15.55;;;9.02;;
80249;SDS011;69561;37.974;23.708;2023-04-24T03:00:56;19.60;;;9.13;;
80249;SDS011;69561;37.974;23.708;2023-04-24T03:03:22;14.40;;;8.80;;
80249;SDS011;69561;37.974;23.708;2023-04-24T03:05:48;21.67;;;9.13;;
80249;SDS011;69561;37.974;23.708;2023-04-24T03:08:14;24.58;;;10.48;;
80249;SDS011;69561;37.974;23.708;2023-04-24T03:10:40;20.10;;;9.45;;
80249;SDS011;69561;37.974;23.708;2023-04-24T03:13:05;18.92;;;9.40;;
80249;SDS011;69561;37.974;23.708;2023-04-24T03:15:31;20.33;;;9.60;;
80249;SDS011;69561;37.974;23.708;2023-04-24T03:17:57;16.48;;;9.00;;
80249;SDS011;69561;37.974;23.708;2023-04-24T03:20:22;18.35;;;8.90;;
80249;SDS011;69561;37.974;23.708;2023-04-24T03:22:48;16.98;;;9.05;;
80249;SDS011;69561;37.974;23.708;2023-04-24T03:25:15;24.52;;;9.65;;
80249;SDS011;69561;37.974;23.708;2023-04-24T03:27:41;15.63;;;8.93;;
80249;SDS011;69561;37.974;23.708;2023-04-24T03:30:07;18.33;;;9.38;;
80249;SDS011;69561;37.974;23.708;2023-04-24T03:32:33;20.58;;;8.77;;
80249;SDS011;69561;37.974;23.708;2023-04-24T03:34:59;21.52;;;8.95;;
80249;SDS011;69561;37.974;23.708;2023-04-24T03:37:25;31.88;;;9.43;;
80249;SDS011;69561;37.974;23.708;2023-04-24T03:39:51;22.52;;;9.23;;
80249;SDS011;69561;37.974;23.708;2023-04-24T03:42:17;29.70;;;8.95;;
80249;SDS011;69561;37.974;23.708;2023-04-24T03:44:43;17.90;;;8.65;;
80249;SDS011;69561;37.974;23.708;2023-04-24T03:47:08;18.55;;;8.95;;
80249;SDS011;69561;37.974;23.708;2023-04-24T03:49:34;25.13;;;9.10;;
80249;SDS011;69561;37.974;23.708;2023-04-24T03:52:00;20.38;;;8.60;;
80249;SDS011;69561;37.974;23.708;2023-04-24T03:54:26;24.60;;;8.52;;
80249;SDS011;69561;37.974;23.708;2023-04-24T03:56:52;28.10;;;8.57;;
80249;SDS011;69561;37.974;23.708;2023-04-24T03:59:18;25.85;;;8.70;;
80249;SDS011;69561;37.974;23.708;2023-04-24T04:01:43;19.60;;;8.07;;
80249;SDS011;69561;37.974;23.708;2023-04-24T04:04:10;24.58;;;8.93;;
80249;SDS011;69561;37.974;23.708;2023-04-24T04:06:36;20.65;;;8.40;;
80249;SDS011;69561;37.974;23.708;2023-04-24T04:09:02;18.10;;;8.20;;
80249;SDS011;69561;37.974;23.708;2023-04-24T04:11:28;16.65;;;8.45;;
80249;SDS011;69561;37.974;23.708;2023-04-24T04:13:54;19.75;;;8.13;;
80249;SDS011;69561;37.974;23.708;2023-04-24T04:16:21;23.80;;;8.40;;
80249;SDS011;69561;37.974;23.708;2023-04-24T04:18:48;23.05;;;8.82;;
80249;SDS011;69561;37.974;23.708;2023-04-24T04:21:13;22.58;;;7.85;;
80249;SDS011;69561;37.974;23.708;2023-04-24T04:23:39;23.67;;;8.88;;
80249;SDS011;69561;37.974;23.708;2023-04-24T04:26:05;20.25;;;8.68;;
80249;SDS011;69561;37.974;23.708;2023-04-24T04:28:31;19.08;;;8.23;;
80249;SDS011;69561;37.974;23.708;2023-04-24T04:30:57;22.58;;;8.77;;
80249;SDS011;69561;37.974;23.708;2023-04-24T04:33:23;22.83;;;8.55;;
80249;SDS011;69561;37.974;23.708;2023-04-24T04:35:50;23.63;;;8.95;;
80249;SDS011;69561;37.974;23.708;2023-04-24T04:38:21;22.50;;;8.05;;
80249;SDS011;69561;37.974;23.708;2023-04-24T04:40:47;23.55;;;8.82;;
80249;SDS011;69561;37.974;23.708;2023-04-24T04:43:13;24.42;;;8.48;;
80249;SDS011;69561;37.974;23.708;2023-04-24T04:45:41;21.30;;;8.70;;
80249;SDS011;69561;37.974;23.708;2023-04-24T04:48:08;19.65;;;8.38;;
80249;SDS011;69561;37.974;23.708;2023-04-24T04:50:34;22.90;;;9.13;;
80249;SDS011;69561;37.974;23.708;2023-04-24T04:53:00;21.98;;;8.57;;
80249;SDS011;69561;37.974;23.708;2023-04-24T04:55:26;18.45;;;8.02;;
80249;SDS011;69561;37.974;23.708;2023-04-24T04:57:52;18.48;;;8.70;;
80249;SDS011;69561;37.974;23.708;2023-04-24T05:00:18;20.40;;;8.25;;
80249;SDS011;69561;37.974;23.708;2023-04-24T05:02:44;22.35;;;8.68;;
80249;SDS011;69561;37.974;23.708;2023-04-24T05:05:10;14.77;;;8.10;;
80249;SDS011;69561;37.974;23.708;2023-04-24T05:07:35;23.45;;;8.88;;
80249;SDS011;69561;37.974;23.708;2023-04-24T05:10:01;22.48;;;8.50;;
80249;SDS011;69561;37.974;23.708;2023-04-24T05:12:28;17.85;;;8.15;;
80249;SDS011;69561;37.974;23.708;2023-04-24T05:14:53;18.17;;;8.73;;
80249;SDS011;69561;37.974;23.708;2023-04-24T05:17:19;19.48;;;8.90;;
80249;SDS011;69561;37.974;23.708;2023-04-24T05:19:45;17.27;;;8.30;;
80249;SDS011;69561;37.974;23.708;2023-04-24T05:22:11;20.45;;;8.57;;
80249;SDS011;69561;37.974;23.708;2023-04-24T05:24:38;14.95;;;8.05;;
80249;SDS011;69561;37.974;23.708;2023-04-24T05:27:04;18.80;;;7.70;;
80249;SDS011;69561;37.974;23.708;2023-04-24T05:29:30;15.05;;;6.85;;
80249;SDS011;69561;37.974;23.708;2023-04-24T05:31:57;12.43;;;6.82;;
80249;SDS011;69561;37.974;23.708;2023-04-24T05:34:23;20.17;;;6.80;;
80249;SDS011;69561;37.974;23.708;2023-04-24T05:36:48;13.85;;;6.40;;
80249;SDS011;69561;37.974;23.708;2023-04-24T05:39:15;10.23;;;6.20;;
80249;SDS011;69561;37.974;23.708;2023-04-24T05:41:42;13.20;;;6.20;;
80249;SDS011;69561;37.974;23.708;2023-04-24T05:44:08;9.73;;;5.78;;
80249;SDS011;69561;37.974;23.708;2023-04-24T05:46:34;10.95;;;6.05;;
80249;SDS011;69561;37.974;23.708;2023-04-24T05:49:00;9.95;;;5.57;;
80249;SDS011;69561;37.974;23.708;2023-04-24T05:51:27;9.95;;;5.53;;
80249;SDS011;69561;37.974;23.708;2023-04-24T05:53:53;11.95;;;5.53;;
80249;SDS011;69561;37.974;23.708;2023-04-24T05:56:18;15.48;;;5.75;;
80249;SDS011;69561;37.974;23.708;2023-04-24T05:58:45;8.88;;;4.65;;
80249;SDS011;69561;37.974;23.708;2023-04-24T06:01:11;10.90;;;5.25;;
80249;SDS011;69561;37.974;23.708;2023-04-24T06:03:39;17.98;;;5.40;;
80249;SDS011;69561;37.974;23.708;2023-04-24T06:06:06;9.10;;;4.90;;
80249;SDS011;69561;37.974;23.708;2023-04-24T06:08:32;8.40;;;4.10;;
80249;SDS011;69561;37.974;23.708;2023-04-24T06:10:58;9.95;;;4.88;;
80249;SDS011;69561;37.974;23.708;2023-04-24T06:13:24;8.30;;;4.93;;
80249;SDS011;69561;37.974;23.708;2023-04-24T06:15:50;9.35;;;4.00;;
80249;SDS011;69561;37.974;23.708;2023-04-24T06:18:17;10.93;;;4.25;;
80249;SDS011;69561;37.974;23.708;2023-04-24T06:20:43;10.02;;;4.10;;
80249;SDS011;69561;37.974;23.708;2023-04-24T06:23:08;6.93;;;4.00;;
80249;SDS011;69561;37.974;23.708;2023-04-24T06:25:34;7.50;;;4.10;;
80249;SDS011;69561;37.974;23.708;2023-04-24T06:28:00;7.32;;;3.90;;
80249;SDS011;69561;37.974;23.708;2023-04-24T06:30:26;6.43;;;3.50;;
80249;SDS011;69561;37.974;23.708;2023-04-24T06:32:53;8.70;;;3.47;;
80249;SDS011;69561;37.974;23.708;2023-04-24T06:35:18;4.95;;;3.22;;
80249;SDS011;69561;37.974;23.708;2023-04-24T06:37:44;5.88;;;3.03;;
80249;SDS011;69561;37.974;23.708;2023-04-24T06:40:10;7.18;;;2.97;;
80249;SDS011;69561;37.974;23.708;2023-04-24T06:42:36;6.10;;;3.55;;
80249;SDS011;69561;37.974;23.708;2023-04-24T06:45:02;4.75;;;3.10;;
80249;SDS011;69561;37.974;23.708;2023-04-24T06:47:29;6.50;;;3.30;;
80249;SDS011;69561;37.974;23.708;2023-04-24T06:49:55;4.50;;;3.00;;
80249;SDS011;69561;37.974;23.708;2023-04-24T06:52:20;5.35;;;3.03;;
80249;SDS011;69561;37.974;23.708;2023-04-24T06:54:46;6.03;;;2.92;;
80249;SDS011;69561;37.974;23.708;2023-04-24T06:57:12;4.40;;;2.72;;
80249;SDS011;69561;37.974;23.708;2023-04-24T06:59:38;3.95;;;2.80;;
80249;SDS011;69561;37.974;23.708;2023-04-24T07:02:04;6.85;;;2.60;;
80249;SDS011;69561;37.974;23.708;2023-04-24T07:04:30;5.95;;;2.70;;
80249;SDS011;69561;37.974;23.708;2023-04-24T07:06:57;7.43;;;2.85;;
80249;SDS011;69561;37.974;23.708;2023-04-24T07:09:24;5.95;;;2.67;;
80249;SDS011;69561;37.974;23.708;2023-04-24T07:11:53;5.40;;;2.42;;
80249;SDS011;69561;37.974;23.708;2023-04-24T07:14:21;8.35;;;2.35;;
80249;SDS011;69561;37.974;23.708;2023-04-24T07:16:47;6.00;;;2.22;;
80249;SDS011;69561;37.974;23.708;2023-04-24T07:19:13;4.32;;;2.75;;
80249;SDS011;69561;37.974;23.708;2023-04-24T07:21:40;3.67;;;2.05;;
80249;SDS011;69561;37.974;23.708;2023-04-24T07:24:09;6.95;;;2.58;;
80249;SDS011;69561;37.974;23.708;2023-04-24T07:26:35;4.85;;;2.55;;
80249;SDS011;69561;37.974;23.708;2023-04-24T07:29:01;5.20;;;2.58;;
80249;SDS011;69561;37.974;23.708;2023-04-24T07:31:31;2.97;;;2.30;;
80249;SDS011;69561;37.974;23.708;2023-04-24T07:33:57;5.15;;;2.13;;
80249;SDS011;69561;37.974;23.708;2023-04-24T07:36:25;4.72;;;2.35;;
80249;SDS011;69561;37.974;23.708;2023-04-24T07:38:51;7.78;;;2.45;;
80249;SDS011;69561;37.974;23.708;2023-04-24T07:41:23;5.18;;;2.47;;
80249;SDS011;69561;37.974;23.708;2023-04-24T07:43:49;3.95;;;1.77;;
80249;SDS011;69561;37.974;23.708;2023-04-24T07:46:15;2.25;;;1.80;;
80249;SDS011;69561;37.974;23.708;2023-04-24T07:48:41;5.20;;;2.05;;
80249;SDS011;69561;37.974;23.708;2023-04-24T07:51:07;3.85;;;1.80;;
80249;SDS011;69561;37.974;23.708;2023-04-24T07:53:35;4.20;;;1.77;;
80249;SDS011;69561;37.974;23.708;2023-04-24T07:56:00;4.05;;;2.15;;
80249;SDS011;69561;37.974;23.708;2023-04-24T07:58:28;2.40;;;1.60;;
80249;SDS011;69561;37.974;23.708;2023-04-24T08:03:21;4.68;;;1.95;;
80249;SDS011;69561;37.974;23.708;2023-04-24T08:05:47;3.95;;;2.03;;
80249;SDS011;69561;37.974;23.708;2023-04-24T08:08:13;2.70;;;1.98;;
80249;SDS011;69561;37.974;23.708;2023-04-24T08:10:39;4.95;;;1.60;;
80249;SDS011;69561;37.974;23.708;2023-04-24T08:13:04;2.25;;;1.90;;
80249;SDS011;69561;37.974;23.708;2023-04-24T08:15:30;6.72;;;2.10;;
80249;SDS011;69561;37.974;23.708;2023-04-24T08:17:56;5.05;;;2.28;;
80249;SDS011;69561;37.974;23.708;2023-04-24T08:20:22;3.70;;;1.70;;
80249;SDS011;69561;37.974;23.708;2023-04-24T08:22:48;2.95;;;2.17;;
80249;SDS011;69561;37.974;23.708;2023-04-24T08:25:13;2.30;;;2.10;;
80249;SDS011;69561;37.974;23.708;2023-04-24T08:27:39;4.65;;;2.10;;
80249;SDS011;69561;37.974;23.708;2023-04-24T08:30:06;12.50;;;2.28;;
80249;SDS011;69561;37.974;23.708;2023-04-24T08:32:32;7.78;;;2.35;;
80249;SDS011;69561;37.974;23.708;2023-04-24T08:34:59;7.20;;;2.05;;
80249;SDS011;69561;37.974;23.708;2023-04-24T08:37:25;5.43;;;1.80;;
80249;SDS011;69561;37.974;23.708;2023-04-24T08:39:52;3.17;;;2.10;;
80249;SDS011;69561;37.974;23.708;2023-04-24T08:42:18;3.47;;;1.90;;
80249;SDS011;69561;37.974;23.708;2023-04-24T08:44:45;2.67;;;1.90;;
80249;SDS011;69561;37.974;23.708;2023-04-24T08:47:11;5.82;;;1.70;;
80249;SDS011;69561;37.974;23.708;2023-04-24T08:49:37;5.72;;;2.05;;
80249;SDS011;69561;37.974;23.708;2023-04-24T08:52:07;7.88;;;1.80;;
80249;SDS011;69561;37.974;23.708;2023-04-24T08:54:36;9.32;;;2.00;;
80249;SDS011;69561;37.974;23.708;2023-04-24T08:57:03;4.75;;;2.17;;
80249;SDS011;69561;37.974;23.708;2023-04-24T08:59:29;2.90;;;2.00;;
80249;SDS011;69561;37.974;23.708;2023-04-24T09:01:56;3.88;;;2.10;;
80249;SDS011;69561;37.974;23.708;2023-04-24T09:04:23;5.60;;;1.83;;
80249;SDS011;69561;37.974;23.708;2023-04-24T09:06:50;4.50;;;2.28;;
80249;SDS011;69561;37.974;23.708;2023-04-24T09:09:19;2.00;;;1.80;;
80249;SDS011;69561;37.974;23.708;2023-04-24T09:11:46;4.97;;;2.00;;
80249;SDS011;69561;37.974;23.708;2023-04-24T09:14:13;2.92;;;1.88;;
80249;SDS011;69561;37.974;23.708;2023-04-24T09:16:39;5.43;;;1.80;;
80249;SDS011;69561;37.974;23.708;2023-04-24T09:19:06;3.30;;;1.85;;
80249;SDS011;69561;37.974;23.708;2023-04-24T09:21:32;2.65;;;1.85;;
80249;SDS011;69561;37.974;23.708;2023-04-24T09:24:00;4.47;;;1.85;;
80249;SDS011;69561;37.974;23.708;2023-04-24T09:26:31;3.30;;;2.00;;
80249;SDS011;69561;37.974;23.708;2023-04-24T09:31:26;1.90;;;1.70;;
80249;SDS011;69561;37.974;23.708;2023-04-24T09:33:57;5.93;;;2.00;;
80249;SDS011;69561;37.974;23.708;2023-04-24T09:36:28;2.00;;;1.80;;
80249;SDS011;69561;37.974;23.708;2023-04-24T09:39:00;2.45;;;1.80;;
80249;SDS011;69561;37.974;23.708;2023-04-24T09:41:27;3.30;;;1.70;;
80249;SDS011;69561;37.974;23.708;2023-04-24T09:43:56;3.47;;;1.83;;
80249;SDS011;69561;37.974;23.708;2023-04-24T09:46:29;3.67;;;1.80;;
80249;SDS011;69561;37.974;23.708;2023-04-24T09:49:02;4.00;;;1.90;;
80249;SDS011;69561;37.974;23.708;2023-04-24T09:51:35;3.53;;;1.80;;
80249;SDS011;69561;37.974;23.708;2023-04-24T09:54:11;2.33;;;1.98;;
80249;SDS011;69561;37.974;23.708;2023-04-24T09:56:42;2.22;;;1.67;;
80249;SDS011;69561;37.974;23.708;2023-04-24T09:59:09;2.17;;;1.73;;
80249;SDS011;69561;37.974;23.708;2023-04-24T10:01:34;2.60;;;1.73;;
80249;SDS011;69561;37.974;23.708;2023-04-24T10:04:01;4.25;;;1.50;;
80249;SDS011;69561;37.974;23.708;2023-04-24T10:06:33;4.47;;;1.60;;
80249;SDS011;69561;37.974;23.708;2023-04-24T10:09:01;2.20;;;1.50;;
80249;SDS011;69561;37.974;23.708;2023-04-24T10:11:28;3.65;;;1.67;;
80249;SDS011;69561;37.974;23.708;2023-04-24T10:13:55;3.47;;;1.60;;
80249;SDS011;69561;37.974;23.708;2023-04-24T10:16:22;6.28;;;1.80;;
80249;SDS011;69561;37.974;23.708;2023-04-24T10:18:48;3.90;;;1.80;;
80249;SDS011;69561;37.974;23.708;2023-04-24T10:21:14;5.85;;;1.65;;
80249;SDS011;69561;37.974;23.708;2023-04-24T10:23:41;2.97;;;1.33;;
80249;SDS011;69561;37.974;23.708;2023-04-24T10:26:12;2.08;;;1.70;;
80249;SDS011;69561;37.974;23.708;2023-04-24T10:28:46;4.43;;;1.83;;
80249;SDS011;69561;37.974;23.708;2023-04-24T10:31:13;3.00;;;1.58;;
80249;SDS011;69561;37.974;23.708;2023-04-24T10:33:43;2.65;;;1.52;;
80249;SDS011;69561;37.974;23.708;2023-04-24T10:36:11;2.55;;;1.77;;
80249;SDS011;69561;37.974;23.708;2023-04-24T10:38:39;3.10;;;1.77;;
80249;SDS011;69561;37.974;23.708;2023-04-24T10:41:07;4.97;;;1.83;;
80249;SDS011;69561;37.974;23.708;2023-04-24T10:43:34;4.28;;;2.15;;
80249;SDS011;69561;37.974;23.708;2023-04-24T10:46:01;4.50;;;1.70;;
80249;SDS011;69561;37.974;23.708;2023-04-24T10:48:28;2.33;;;1.88;;
80249;SDS011;69561;37.974;23.708;2023-04-24T10:50:55;4.55;;;2.13;;
80249;SDS011;69561;37.974;23.708;2023-04-24T10:53:22;3.47;;;2.08;;
80249;SDS011;69561;37.974;23.708;2023-04-24T10:56:02;7.30;;;1.92;;
80249;SDS011;69561;37.974;23.708;2023-04-24T10:58:44;3.28;;;2.08;;
80249;SDS011;69561;37.974;23.708;2023-04-24T11:01:29;3.10;;;2.08;;
80249;SDS011;69561;37.974;23.708;2023-04-24T11:03:57;2.22;;;1.88;;
80249;SDS011;69561;37.974;23.708;2023-04-24T11:06:34;4.65;;;2.20;;
80249;SDS011;69561;37.974;23.708;2023-04-24T11:09:05;2.25;;;1.85;;
80249;SDS011;69561;37.974;23.708;2023-04-24T11:11:33;2.33;;;1.80;;
80249;SDS011;69561;37.974;23.708;2023-04-24T11:14:01;4.15;;;1.83;;
80249;SDS011;69561;37.974;23.708;2023-04-24T11:16:52;2.83;;;1.80;;
80249;SDS011;69561;37.974;23.708;2023-04-24T11:19:26;6.47;;;2.03;;
80249;SDS011;69561;37.974;23.708;2023-04-24T11:27:14;2.58;;;1.90;;
80249;SDS011;69561;37.974;23.708;2023-04-24T11:34:44;2.10;;;1.90;;
80249;SDS011;69561;37.974;23.708;2023-04-24T11:37:23;3.08;;;1.83;;
80249;SDS011;69561;37.974;23.708;2023-04-24T11:39:50;1.88;;;1.70;;
80249;SDS011;69561;37.974;23.708;2023-04-24T11:42:21;3.00;;;1.57;;
80249;SDS011;69561;37.974;23.708;2023-04-24T11:44:48;3.60;;;2.00;;
80249;SDS011;69561;37.974;23.708;2023-04-24T11:47:15;2.55;;;1.73;;
80249;SDS011;69561;37.974;23.708;2023-04-24T11:49:41;1.80;;;1.60;;
80249;SDS011;69561;37.974;23.708;2023-04-24T11:52:07;6.72;;;2.50;;
80249;SDS011;69561;37.974;23.708;2023-04-24T11:54:32;4.65;;;2.30;;
80249;SDS011;69561;37.974;23.708;2023-04-24T11:56:58;3.05;;;2.00;;
80249;SDS011;69561;37.974;23.708;2023-04-24T11:59:24;3.28;;;1.95;;
80249;SDS011;69561;37.974;23.708;2023-04-24T12:01:50;4.38;;;2.00;;
80249;SDS011;69561;37.974;23.708;2023-04-24T12:04:17;2.70;;;2.10;;
80249;SDS011;69561;37.974;23.708;2023-04-24T12:06:59;2.67;;;1.92;;
80249;SDS011;69561;37.974;23.708;2023-04-24T12:09:26;3.95;;;1.90;;
80249;SDS011;69561;37.974;23.708;2023-04-24T12:11:52;2.63;;;1.83;;
80249;SDS011;69561;37.974;23.708;2023-04-24T12:14:20;5.60;;;1.80;;
80249;SDS011;69561;37.974;23.708;2023-04-24T12:16:47;2.42;;;1.90;;
80249;SDS011;69561;37.974;23.708;2023-04-24T12:19:20;3.03;;;1.75;;
80249;SDS011;69561;37.974;23.708;2023-04-24T12:22:03;2.20;;;1.70;;
80249;SDS011;69561;37.974;23.708;2023-04-24T12:24:30;4.32;;;1.88;;
80249;SDS011;69561;37.974;23.708;2023-04-24T12:26:56;4.55;;;1.80;;
80249;SDS011;69561;37.974;23.708;2023-04-24T12:29:23;2.90;;;1.73;;
80249;SDS011;69561;37.974;23.708;2023-04-24T12:31:52;2.60;;;1.50;;
80249;SDS011;69561;37.974;23.708;2023-04-24T12:34:19;4.10;;;1.48;;
80249;SDS011;69561;37.974;23.708;2023-04-24T12:36:46;2.45;;;1.75;;
80249;SDS011;69561;37.974;23.708;2023-04-24T12:39:15;3.08;;;1.63;;
80249;SDS011;69561;37.974;23.708;2023-04-24T12:42:15;2.83;;;1.50;;
80249;SDS011;69561;37.974;23.708;2023-04-24T12:44:34;3.17;;;1.80;;
80249;SDS011;69561;37.974;23.708;2023-04-24T12:47:02;7.68;;;1.73;;
80249;SDS011;69561;37.974;23.708;2023-04-24T12:49:29;3.83;;;1.65;;
80249;SDS011;69561;37.974;23.708;2023-04-24T12:51:55;1.73;;;1.50;;
80249;SDS011;69561;37.974;23.708;2023-04-24T12:54:21;3.75;;;1.48;;
80249;SDS011;69561;37.974;23.708;2023-04-24T12:56:47;3.33;;;1.70;;
80249;SDS011;69561;37.974;23.708;2023-04-24T12:59:13;5.55;;;1.70;;
80249;SDS011;69561;37.974;23.708;2023-04-24T13:01:38;4.43;;;2.08;;
80249;SDS011;69561;37.974;23.708;2023-04-24T13:04:05;2.80;;;1.88;;
80249;SDS011;69561;37.974;23.708;2023-04-24T13:06:31;4.07;;;1.55;;
80249;SDS011;69561;37.974;23.708;2023-04-24T13:08:57;3.97;;;1.67;;
80249;SDS011;69561;37.974;23.708;2023-04-24T13:11:23;2.00;;;1.80;;
80249;SDS011;69561;37.974;23.708;2023-04-24T13:13:49;4.32;;;1.75;;
80249;SDS011;69561;37.974;23.708;2023-04-24T13:16:15;1.98;;;1.45;;
80249;SDS011;69561;37.974;23.708;2023-04-24T13:18:41;1.63;;;1.38;;
80249;SDS011;69561;37.974;23.708;2023-04-24T13:21:07;4.53;;;1.70;;
80249;SDS011;69561;37.974;23.708;2023-04-24T13:23:32;2.45;;;1.63;;
80249;SDS011;69561;37.974;23.708;2023-04-24T13:25:59;4.13;;;1.70;;
80249;SDS011;69561;37.974;23.708;2023-04-24T13:28:26;2.00;;;1.55;;
80249;SDS011;69561;37.974;23.708;2023-04-24T13:30:52;2.30;;;1.58;;
80249;SDS011;69561;37.974;23.708;2023-04-24T13:33:18;3.40;;;1.30;;
80249;SDS011;69561;37.974;23.708;2023-04-24T13:35:44;2.53;;;1.42;;
80249;SDS011;69561;37.974;23.708;2023-04-24T13:38:09;1.52;;;1.33;;
80249;SDS011;69561;37.974;23.708;2023-04-24T13:40:35;2.40;;;1.58;;
80249;SDS011;69561;37.974;23.708;2023-04-24T13:43:01;1.52;;;1.38;;
80249;SDS011;69561;37.974;23.708;2023-04-24T13:45:27;5.13;;;1.73;;
80249;SDS011;69561;37.974;23.708;2023-04-24T13:47:53;1.55;;;1.45;;
80249;SDS011;69561;37.974;23.708;2023-04-24T13:50:19;2.08;;;1.48;;
80249;SDS011;69561;37.974;23.708;2023-04-24T13:52:45;3.90;;;1.40;;
80249;SDS011;69561;37.974;23.708;2023-04-24T13:55:11;2.08;;;1.30;;
80249;SDS011;69561;37.974;23.708;2023-04-24T13:57:37;1.73;;;1.33;;
80249;SDS011;69561;37.974;23.708;2023-04-24T14:00:03;2.72;;;1.30;;
80249;SDS011;69561;37.974;23.708;2023-04-24T14:02:29;1.77;;;1.20;;
80249;SDS011;69561;37.974;23.708;2023-04-24T14:04:55;2.38;;;1.23;;
80249;SDS011;69561;37.974;23.708;2023-04-24T14:07:21;2.90;;;1.30;;
80249;SDS011;69561;37.974;23.708;2023-04-24T14:09:46;1.90;;;1.40;;
80249;SDS011;69561;37.974;23.708;2023-04-24T14:12:12;2.53;;;1.40;;
80249;SDS011;69561;37.974;23.708;2023-04-24T14:14:39;2.55;;;1.33;;
80249;SDS011;69561;37.974;23.708;2023-04-24T14:17:05;1.30;;;1.20;;
80249;SDS011;69561;37.974;23.708;2023-04-24T14:19:31;1.55;;;1.30;;
80249;SDS011;69561;37.974;23.708;2023-04-24T14:21:56;1.92;;;1.30;;
80249;SDS011;69561;37.974;23.708;2023-04-24T14:24:23;2.78;;;1.42;;
80249;SDS011;69561;37.974;23.708;2023-04-24T14:26:49;2.10;;;1.35;;
80249;SDS011;69561;37.974;23.708;2023-04-24T14:29:14;1.83;;;1.40;;
80249;SDS011;69561;37.974;23.708;2023-04-24T14:31:42;1.92;;;1.40;;
80249;SDS011;69561;37.974;23.708;2023-04-24T14:34:08;1.95;;;1.30;;
80249;SDS011;69561;37.974;23.708;2023-04-24T14:36:34;1.50;;;1.35;;
80249;SDS011;69561;37.974;23.708;2023-04-24T14:39:00;2.80;;;1.40;;
80249;SDS011;69561;37.974;23.708;2023-04-24T14:41:30;1.52;;;1.40;;